Upper Black Eddy, Pennsylvania
Current Conditions -  °F | °C
As of 12:54 AM on Wednesday 22 Oct 2014 (Local Time) from KDYL Reporting Station
Overcast Overcast  
Wind Chill: 52°   Ceiling: 8000
Heat Index: 52°   Visibility: 10mi
Dew Point: 51°   Wind: 7mph
Humidity: 97%   Direction: 20°NNE
Pressure: 29.89"   Gusts: NA
Location:  40.57°N, 75.1°W
Report Text: KDYL 220454Z AUTO 02006KT 10SM OVC080 11/11 A2989 RMK AO2 RAB11E40 SLP119 P0001 T01110106 401940089
Loading
Personal Weather Stations






























Interactive Weather Map
Tropical Storm Tracking
New forecast layout! Learn more

10-Day Weather Forecast

Advertisements
Track Severe Weather on mobile